sensor_id;sensor_type;location;lat;lon;timestamp;P1;durP1;ratioP1;P2;durP2;ratioP2
6442;SDS011;3254;47.372;8.512;2023-05-07T00:02:10;3.13;;;2.87;;
6442;SDS011;3254;47.372;8.512;2023-05-07T00:04:36;7.60;;;3.00;;
6442;SDS011;3254;47.372;8.512;2023-05-07T00:07:04;7.50;;;3.87;;
6442;SDS011;3254;47.372;8.512;2023-05-07T00:09:30;3.63;;;3.40;;
6442;SDS011;3254;47.372;8.512;2023-05-07T00:11:56;3.97;;;3.13;;
6442;SDS011;3254;47.372;8.512;2023-05-07T00:14:21;5.33;;;4.00;;
6442;SDS011;3254;47.372;8.512;2023-05-07T00:16:47;3.87;;;2.80;;
6442;SDS011;3254;47.372;8.512;2023-05-07T00:19:13;6.10;;;3.87;;
6442;SDS011;3254;47.372;8.512;2023-05-07T00:21:38;4.37;;;3.20;;
6442;SDS011;3254;47.372;8.512;2023-05-07T00:24:06;3.23;;;3.03;;
6442;SDS011;3254;47.372;8.512;2023-05-07T00:26:32;3.40;;;3.20;;
6442;SDS011;3254;47.372;8.512;2023-05-07T00:28:59;6.20;;;3.50;;
6442;SDS011;3254;47.372;8.512;2023-05-07T00:31:24;3.47;;;3.17;;
6442;SDS011;3254;47.372;8.512;2023-05-07T00:33:50;3.97;;;3.40;;
6442;SDS011;3254;47.372;8.512;2023-05-07T00:36:15;4.70;;;4.30;;
6442;SDS011;3254;47.372;8.512;2023-05-07T00:38:41;5.50;;;3.80;;
6442;SDS011;3254;47.372;8.512;2023-05-07T00:41:07;4.13;;;3.93;;
6442;SDS011;3254;47.372;8.512;2023-05-07T00:43:32;12.93;;;4.40;;
6442;SDS011;3254;47.372;8.512;2023-05-07T00:45:58;4.17;;;3.67;;
6442;SDS011;3254;47.372;8.512;2023-05-07T00:48:24;3.97;;;3.77;;
6442;SDS011;3254;47.372;8.512;2023-05-07T00:50:50;5.10;;;4.33;;
6442;SDS011;3254;47.372;8.512;2023-05-07T00:53:16;3.80;;;3.50;;
6442;SDS011;3254;47.372;8.512;2023-05-07T00:55:42;3.60;;;3.40;;
6442;SDS011;3254;47.372;8.512;2023-05-07T00:58:08;4.53;;;4.20;;
6442;SDS011;3254;47.372;8.512;2023-05-07T01:00:34;4.70;;;4.03;;
6442;SDS011;3254;47.372;8.512;2023-05-07T01:03:02;5.10;;;4.67;;
6442;SDS011;3254;47.372;8.512;2023-05-07T01:05:28;4.10;;;3.70;;
6442;SDS011;3254;47.372;8.512;2023-05-07T01:07:55;4.10;;;3.80;;
6442;SDS011;3254;47.372;8.512;2023-05-07T01:10:22;4.00;;;3.70;;
6442;SDS011;3254;47.372;8.512;2023-05-07T01:12:49;6.20;;;3.90;;
6442;SDS011;3254;47.372;8.512;2023-05-07T01:15:15;3.87;;;3.57;;
6442;SDS011;3254;47.372;8.512;2023-05-07T01:17:42;7.87;;;3.57;;
6442;SDS011;3254;47.372;8.512;2023-05-07T01:20:09;4.20;;;3.80;;
6442;SDS011;3254;47.372;8.512;2023-05-07T01:22:37;4.77;;;4.00;;
6442;SDS011;3254;47.372;8.512;2023-05-07T01:25:03;3.63;;;3.33;;
6442;SDS011;3254;47.372;8.512;2023-05-07T01:27:30;5.33;;;4.57;;
6442;SDS011;3254;47.372;8.512;2023-05-07T01:29:56;4.33;;;4.03;;
6442;SDS011;3254;47.372;8.512;2023-05-07T01:32:24;5.03;;;3.70;;
6442;SDS011;3254;47.372;8.512;2023-05-07T01:34:57;4.27;;;3.87;;
6442;SDS011;3254;47.372;8.512;2023-05-07T01:37:25;5.03;;;3.60;;
6442;SDS011;3254;47.372;8.512;2023-05-07T01:39:52;4.80;;;3.93;;
6442;SDS011;3254;47.372;8.512;2023-05-07T01:42:20;16.77;;;4.20;;
6442;SDS011;3254;47.372;8.512;2023-05-07T01:44:46;3.80;;;3.60;;
6442;SDS011;3254;47.372;8.512;2023-05-07T01:47:12;7.83;;;3.47;;
6442;SDS011;3254;47.372;8.512;2023-05-07T01:49:39;3.37;;;3.17;;
6442;SDS011;3254;47.372;8.512;2023-05-07T01:52:05;3.40;;;3.27;;
6442;SDS011;3254;47.372;8.512;2023-05-07T01:54:31;4.30;;;3.50;;
6442;SDS011;3254;47.372;8.512;2023-05-07T01:56:56;4.13;;;3.60;;
6442;SDS011;3254;47.372;8.512;2023-05-07T01:59:22;3.53;;;3.30;;
6442;SDS011;3254;47.372;8.512;2023-05-07T02:01:48;3.90;;;3.60;;
6442;SDS011;3254;47.372;8.512;2023-05-07T02:04:14;5.50;;;3.63;;
6442;SDS011;3254;47.372;8.512;2023-05-07T02:06:40;5.67;;;4.00;;
6442;SDS011;3254;47.372;8.512;2023-05-07T02:09:05;7.03;;;3.90;;
6442;SDS011;3254;47.372;8.512;2023-05-07T02:11:32;4.30;;;3.87;;
6442;SDS011;3254;47.372;8.512;2023-05-07T02:13:58;3.40;;;3.20;;
6442;SDS011;3254;47.372;8.512;2023-05-07T02:16:24;4.03;;;3.70;;
6442;SDS011;3254;47.372;8.512;2023-05-07T02:18:50;3.70;;;3.60;;
6442;SDS011;3254;47.372;8.512;2023-05-07T02:21:17;4.07;;;3.43;;
6442;SDS011;3254;47.372;8.512;2023-05-07T02:23:43;4.03;;;3.63;;
6442;SDS011;3254;47.372;8.512;2023-05-07T02:26:10;3.73;;;3.60;;
6442;SDS011;3254;47.372;8.512;2023-05-07T02:28:36;3.57;;;3.37;;
6442;SDS011;3254;47.372;8.512;2023-05-07T02:31:02;4.70;;;4.20;;
6442;SDS011;3254;47.372;8.512;2023-05-07T02:33:28;3.97;;;3.70;;
6442;SDS011;3254;47.372;8.512;2023-05-07T02:35:54;4.00;;;3.80;;
6442;SDS011;3254;47.372;8.512;2023-05-07T02:38:20;4.70;;;4.30;;
6442;SDS011;3254;47.372;8.512;2023-05-07T02:40:45;4.90;;;4.60;;
6442;SDS011;3254;47.372;8.512;2023-05-07T02:43:12;4.50;;;4.20;;
6442;SDS011;3254;47.372;8.512;2023-05-07T02:45:37;4.10;;;3.90;;
6442;SDS011;3254;47.372;8.512;2023-05-07T02:48:03;3.70;;;3.40;;
6442;SDS011;3254;47.372;8.512;2023-05-07T02:50:30;4.80;;;3.60;;
6442;SDS011;3254;47.372;8.512;2023-05-07T02:52:57;3.57;;;3.37;;
6442;SDS011;3254;47.372;8.512;2023-05-07T02:55:23;6.47;;;4.50;;
6442;SDS011;3254;47.372;8.512;2023-05-07T02:57:50;5.17;;;3.90;;
6442;SDS011;3254;47.372;8.512;2023-05-07T03:00:17;4.43;;;3.77;;
6442;SDS011;3254;47.372;8.512;2023-05-07T03:02:44;7.80;;;3.63;;
6442;SDS011;3254;47.372;8.512;2023-05-07T03:05:10;4.80;;;4.30;;
6442;SDS011;3254;47.372;8.512;2023-05-07T03:07:36;4.30;;;4.00;;
6442;SDS011;3254;47.372;8.512;2023-05-07T03:10:03;4.70;;;4.30;;
6442;SDS011;3254;47.372;8.512;2023-05-07T03:12:30;3.80;;;3.60;;
6442;SDS011;3254;47.372;8.512;2023-05-07T03:14:56;4.47;;;4.10;;
6442;SDS011;3254;47.372;8.512;2023-05-07T03:17:22;4.20;;;4.00;;
6442;SDS011;3254;47.372;8.512;2023-05-07T03:19:47;5.07;;;4.53;;
6442;SDS011;3254;47.372;8.512;2023-05-07T03:22:15;4.40;;;4.10;;
6442;SDS011;3254;47.372;8.512;2023-05-07T03:24:41;6.57;;;3.60;;
6442;SDS011;3254;47.372;8.512;2023-05-07T03:27:07;4.37;;;4.07;;
6442;SDS011;3254;47.372;8.512;2023-05-07T03:29:33;10.00;;;4.40;;
6442;SDS011;3254;47.372;8.512;2023-05-07T03:31:59;4.30;;;4.10;;
6442;SDS011;3254;47.372;8.512;2023-05-07T03:34:24;5.60;;;5.07;;
6442;SDS011;3254;47.372;8.512;2023-05-07T03:36:50;10.33;;;5.17;;
6442;SDS011;3254;47.372;8.512;2023-05-07T03:39:17;5.50;;;5.00;;
6442;SDS011;3254;47.372;8.512;2023-05-07T03:41:43;5.40;;;4.90;;
6442;SDS011;3254;47.372;8.512;2023-05-07T03:44:10;11.03;;;5.33;;
6442;SDS011;3254;47.372;8.512;2023-05-07T03:46:35;5.30;;;4.90;;
6442;SDS011;3254;47.372;8.512;2023-05-07T03:49:01;6.43;;;5.50;;
6442;SDS011;3254;47.372;8.512;2023-05-07T03:51:29;7.00;;;5.40;;
6442;SDS011;3254;47.372;8.512;2023-05-07T03:53:55;7.00;;;5.27;;
6442;SDS011;3254;47.372;8.512;2023-05-07T03:56:22;7.57;;;5.43;;
6442;SDS011;3254;47.372;8.512;2023-05-07T03:58:48;5.40;;;5.00;;
6442;SDS011;3254;47.372;8.512;2023-05-07T04:01:14;5.47;;;4.90;;
6442;SDS011;3254;47.372;8.512;2023-05-07T04:03:40;6.30;;;5.70;;
6442;SDS011;3254;47.372;8.512;2023-05-07T04:06:06;4.97;;;4.50;;
6442;SDS011;3254;47.372;8.512;2023-05-07T04:08:35;5.00;;;4.50;;
6442;SDS011;3254;47.372;8.512;2023-05-07T04:11:01;5.70;;;5.30;;
6442;SDS011;3254;47.372;8.512;2023-05-07T04:13:27;5.67;;;5.13;;
6442;SDS011;3254;47.372;8.512;2023-05-07T04:15:55;5.67;;;5.17;;
6442;SDS011;3254;47.372;8.512;2023-05-07T04:18:20;6.00;;;4.97;;
6442;SDS011;3254;47.372;8.512;2023-05-07T04:20:47;5.80;;;5.10;;
6442;SDS011;3254;47.372;8.512;2023-05-07T04:23:14;5.30;;;4.80;;
6442;SDS011;3254;47.372;8.512;2023-05-07T04:25:40;6.17;;;3.87;;
6442;SDS011;3254;47.372;8.512;2023-05-07T04:28:06;5.80;;;4.43;;
6442;SDS011;3254;47.372;8.512;2023-05-07T04:30:33;4.80;;;4.17;;
6442;SDS011;3254;47.372;8.512;2023-05-07T04:33:00;4.33;;;4.03;;
6442;SDS011;3254;47.372;8.512;2023-05-07T04:35:29;4.13;;;3.90;;
6442;SDS011;3254;47.372;8.512;2023-05-07T04:37:57;4.70;;;3.97;;
6442;SDS011;3254;47.372;8.512;2023-05-07T04:40:23;4.30;;;4.00;;
6442;SDS011;3254;47.372;8.512;2023-05-07T04:42:48;3.67;;;3.47;;
6442;SDS011;3254;47.372;8.512;2023-05-07T04:45:16;4.33;;;4.03;;
6442;SDS011;3254;47.372;8.512;2023-05-07T04:47:42;5.70;;;4.67;;
6442;SDS011;3254;47.372;8.512;2023-05-07T04:50:07;5.07;;;4.60;;
6442;SDS011;3254;47.372;8.512;2023-05-07T04:52:33;5.03;;;4.63;;
6442;SDS011;3254;47.372;8.512;2023-05-07T04:55:00;5.70;;;4.37;;
6442;SDS011;3254;47.372;8.512;2023-05-07T04:57:31;4.90;;;4.47;;
6442;SDS011;3254;47.372;8.512;2023-05-07T04:59:58;5.37;;;4.87;;
6442;SDS011;3254;47.372;8.512;2023-05-07T05:02:25;6.17;;;4.87;;
6442;SDS011;3254;47.372;8.512;2023-05-07T05:04:54;5.30;;;4.90;;
6442;SDS011;3254;47.372;8.512;2023-05-07T05:07:19;5.60;;;5.20;;
6442;SDS011;3254;47.372;8.512;2023-05-07T05:09:46;7.00;;;4.90;;
6442;SDS011;3254;47.372;8.512;2023-05-07T05:12:13;5.57;;;4.80;;
6442;SDS011;3254;47.372;8.512;2023-05-07T05:14:38;6.37;;;5.70;;
6442;SDS011;3254;47.372;8.512;2023-05-07T05:17:06;5.37;;;4.97;;
6442;SDS011;3254;47.372;8.512;2023-05-07T05:19:32;6.33;;;5.83;;
6442;SDS011;3254;47.372;8.512;2023-05-07T05:21:59;6.10;;;5.50;;
6442;SDS011;3254;47.372;8.512;2023-05-07T05:24:26;5.40;;;4.90;;
6442;SDS011;3254;47.372;8.512;2023-05-07T05:26:55;5.20;;;4.87;;
6442;SDS011;3254;47.372;8.512;2023-05-07T05:29:20;5.00;;;4.70;;
6442;SDS011;3254;47.372;8.512;2023-05-07T05:31:46;5.53;;;5.13;;
6442;SDS011;3254;47.372;8.512;2023-05-07T05:34:12;5.00;;;4.60;;
6442;SDS011;3254;47.372;8.512;2023-05-07T05:36:37;6.07;;;4.43;;
6442;SDS011;3254;47.372;8.512;2023-05-07T05:39:04;6.47;;;5.00;;
6442;SDS011;3254;47.372;8.512;2023-05-07T05:41:31;5.90;;;5.30;;
6442;SDS011;3254;47.372;8.512;2023-05-07T05:43:57;6.03;;;4.80;;
6442;SDS011;3254;47.372;8.512;2023-05-07T05:46:22;14.70;;;5.83;;
6442;SDS011;3254;47.372;8.512;2023-05-07T05:48:48;5.50;;;5.07;;
6442;SDS011;3254;47.372;8.512;2023-05-07T05:51:13;8.93;;;5.53;;
6442;SDS011;3254;47.372;8.512;2023-05-07T05:53:39;5.23;;;4.43;;
6442;SDS011;3254;47.372;8.512;2023-05-07T05:56:05;5.33;;;4.83;;
6442;SDS011;3254;47.372;8.512;2023-05-07T05:58:32;7.53;;;5.30;;
6442;SDS011;3254;47.372;8.512;2023-05-07T06:00:59;5.73;;;5.17;;
6442;SDS011;3254;47.372;8.512;2023-05-07T06:03:27;5.80;;;5.30;;
6442;SDS011;3254;47.372;8.512;2023-05-07T06:05:54;5.57;;;5.07;;
6442;SDS011;3254;47.372;8.512;2023-05-07T06:08:21;5.43;;;4.80;;
6442;SDS011;3254;47.372;8.512;2023-05-07T06:10:49;5.03;;;4.73;;
6442;SDS011;3254;47.372;8.512;2023-05-07T06:13:17;5.23;;;4.83;;
6442;SDS011;3254;47.372;8.512;2023-05-07T06:15:45;4.77;;;4.43;;
6442;SDS011;3254;47.372;8.512;2023-05-07T06:18:17;4.60;;;4.23;;
6442;SDS011;3254;47.372;8.512;2023-05-07T06:20:43;3.97;;;3.57;;
6442;SDS011;3254;47.372;8.512;2023-05-07T06:23:08;4.60;;;4.23;;
6442;SDS011;3254;47.372;8.512;2023-05-07T06:25:34;7.60;;;3.93;;
6442;SDS011;3254;47.372;8.512;2023-05-07T06:27:59;4.90;;;4.20;;
6442;SDS011;3254;47.372;8.512;2023-05-07T06:30:26;4.13;;;3.70;;
6442;SDS011;3254;47.372;8.512;2023-05-07T06:32:53;4.10;;;3.90;;
6442;SDS011;3254;47.372;8.512;2023-05-07T06:35:19;3.60;;;3.40;;
6442;SDS011;3254;47.372;8.512;2023-05-07T06:37:44;4.00;;;3.70;;
6442;SDS011;3254;47.372;8.512;2023-05-07T06:40:11;4.83;;;3.67;;
6442;SDS011;3254;47.372;8.512;2023-05-07T06:42:37;4.43;;;3.40;;
6442;SDS011;3254;47.372;8.512;2023-05-07T06:45:03;7.50;;;5.07;;
6442;SDS011;3254;47.372;8.512;2023-05-07T06:47:29;5.80;;;4.40;;
6442;SDS011;3254;47.372;8.512;2023-05-07T06:49:55;3.53;;;3.33;;
6442;SDS011;3254;47.372;8.512;2023-05-07T06:52:20;4.53;;;4.13;;
6442;SDS011;3254;47.372;8.512;2023-05-07T06:54:46;6.20;;;4.00;;
6442;SDS011;3254;47.372;8.512;2023-05-07T06:57:12;6.90;;;4.00;;
6442;SDS011;3254;47.372;8.512;2023-05-07T06:59:37;3.53;;;3.23;;
6442;SDS011;3254;47.372;8.512;2023-05-07T07:02:03;5.37;;;3.10;;
6442;SDS011;3254;47.372;8.512;2023-05-07T07:04:30;3.83;;;3.53;;
6442;SDS011;3254;47.372;8.512;2023-05-07T07:06:57;3.50;;;3.30;;
6442;SDS011;3254;47.372;8.512;2023-05-07T07:09:23;5.00;;;3.03;;
6442;SDS011;3254;47.372;8.512;2023-05-07T07:11:48;7.60;;;3.47;;
6442;SDS011;3254;47.372;8.512;2023-05-07T07:14:20;3.07;;;2.87;;
6442;SDS011;3254;47.372;8.512;2023-05-07T07:16:55;4.23;;;3.60;;
6442;SDS011;3254;47.372;8.512;2023-05-07T07:19:21;3.33;;;3.03;;
6442;SDS011;3254;47.372;8.512;2023-05-07T07:21:47;3.50;;;2.60;;
6442;SDS011;3254;47.372;8.512;2023-05-07T07:24:13;4.03;;;2.83;;
6442;SDS011;3254;47.372;8.512;2023-05-07T07:26:44;2.57;;;2.37;;
6442;SDS011;3254;47.372;8.512;2023-05-07T07:29:09;4.60;;;2.80;;
6442;SDS011;3254;47.372;8.512;2023-05-07T07:31:35;3.20;;;2.90;;
6442;SDS011;3254;47.372;8.512;2023-05-07T07:34:01;7.23;;;3.00;;
6442;SDS011;3254;47.372;8.512;2023-05-07T07:36:26;3.60;;;3.27;;
6442;SDS011;3254;47.372;8.512;2023-05-07T07:38:53;3.10;;;2.53;;
6442;SDS011;3254;47.372;8.512;2023-05-07T07:41:18;2.87;;;2.67;;
6442;SDS011;3254;47.372;8.512;2023-05-07T07:43:44;2.40;;;2.30;;
6442;SDS011;3254;47.372;8.512;2023-05-07T07:46:11;4.37;;;2.60;;
6442;SDS011;3254;47.372;8.512;2023-05-07T07:48:38;3.63;;;2.47;;
6442;SDS011;3254;47.372;8.512;2023-05-07T07:51:04;2.20;;;2.10;;
6442;SDS011;3254;47.372;8.512;2023-05-07T07:53:29;4.53;;;2.27;;
6442;SDS011;3254;47.372;8.512;2023-05-07T07:55:55;2.10;;;2.00;;
6442;SDS011;3254;47.372;8.512;2023-05-07T07:58:21;4.47;;;2.80;;
6442;SDS011;3254;47.372;8.512;2023-05-07T08:00:50;3.80;;;2.57;;
6442;SDS011;3254;47.372;8.512;2023-05-07T08:03:16;3.10;;;2.60;;
6442;SDS011;3254;47.372;8.512;2023-05-07T08:05:44;2.03;;;1.83;;
6442;SDS011;3254;47.372;8.512;2023-05-07T08:08:10;2.20;;;2.10;;
6442;SDS011;3254;47.372;8.512;2023-05-07T08:10:36;2.13;;;1.60;;
6442;SDS011;3254;47.372;8.512;2023-05-07T08:13:03;1.70;;;1.60;;
6442;SDS011;3254;47.372;8.512;2023-05-07T08:15:30;1.77;;;1.67;;
6442;SDS011;3254;47.372;8.512;2023-05-07T08:17:56;3.50;;;1.50;;
6442;SDS011;3254;47.372;8.512;2023-05-07T08:20:25;1.80;;;1.70;;
6442;SDS011;3254;47.372;8.512;2023-05-07T08:22:51;2.17;;;1.80;;
6442;SDS011;3254;47.372;8.512;2023-05-07T08:25:17;1.90;;;1.80;;
6442;SDS011;3254;47.372;8.512;2023-05-07T08:27:43;4.03;;;1.90;;
6442;SDS011;3254;47.372;8.512;2023-05-07T08:30:10;4.23;;;1.57;;
6442;SDS011;3254;47.372;8.512;2023-05-07T08:32:37;1.83;;;1.57;;
6442;SDS011;3254;47.372;8.512;2023-05-07T08:35:04;2.50;;;1.80;;
6442;SDS011;3254;47.372;8.512;2023-05-07T08:37:30;2.40;;;2.03;;
6442;SDS011;3254;47.372;8.512;2023-05-07T08:39:57;3.20;;;2.13;;
6442;SDS011;3254;47.372;8.512;2023-05-07T08:42:25;2.73;;;2.53;;
6442;SDS011;3254;47.372;8.512;2023-05-07T08:44:53;2.77;;;2.43;;
6442;SDS011;3254;47.372;8.512;2023-05-07T08:47:25;2.10;;;2.00;;
6442;SDS011;3254;47.372;8.512;2023-05-07T08:49:59;4.43;;;2.70;;
6442;SDS011;3254;47.372;8.512;2023-05-07T08:52:29;3.20;;;2.17;;
6442;SDS011;3254;47.372;8.512;2023-05-07T08:54:54;2.20;;;2.07;;
6442;SDS011;3254;47.372;8.512;2023-05-07T08:57:21;2.53;;;2.33;;
6442;SDS011;3254;47.372;8.512;2023-05-07T08:59:49;2.77;;;2.13;;
6442;SDS011;3254;47.372;8.512;2023-05-07T09:02:15;2.30;;;2.20;;
6442;SDS011;3254;47.372;8.512;2023-05-07T09:04:44;2.37;;;2.27;;
6442;SDS011;3254;47.372;8.512;2023-05-07T09:07:09;2.30;;;2.10;;
6442;SDS011;3254;47.372;8.512;2023-05-07T09:09:35;2.50;;;2.30;;
6442;SDS011;3254;47.372;8.512;2023-05-07T09:12:03;2.67;;;2.47;;
6442;SDS011;3254;47.372;8.512;2023-05-07T09:14:31;1.90;;;1.80;;
6442;SDS011;3254;47.372;8.512;2023-05-07T09:17:01;2.00;;;1.90;;
6442;SDS011;3254;47.372;8.512;2023-05-07T09:19:28;3.03;;;2.33;;
6442;SDS011;3254;47.372;8.512;2023-05-07T09:22:02;3.93;;;2.30;;
6442;SDS011;3254;47.372;8.512;2023-05-07T09:24:31;6.47;;;2.50;;
6442;SDS011;3254;47.372;8.512;2023-05-07T09:27:03;4.33;;;2.30;;
6442;SDS011;3254;47.372;8.512;2023-05-07T09:29:29;2.43;;;2.33;;
6442;SDS011;3254;47.372;8.512;2023-05-07T09:31:59;4.10;;;2.47;;
6442;SDS011;3254;47.372;8.512;2023-05-07T09:34:30;3.03;;;2.47;;
6442;SDS011;3254;47.372;8.512;2023-05-07T09:36:58;4.17;;;3.07;;
6442;SDS011;3254;47.372;8.512;2023-05-07T09:39:49;2.70;;;2.60;;
6442;SDS011;3254;47.372;8.512;2023-05-07T09:42:15;2.30;;;2.10;;
6442;SDS011;3254;47.372;8.512;2023-05-07T09:44:41;3.30;;;2.57;;
6442;SDS011;3254;47.372;8.512;2023-05-07T09:47:08;2.63;;;2.40;;
6442;SDS011;3254;47.372;8.512;2023-05-07T09:49:37;2.90;;;2.70;;
6442;SDS011;3254;47.372;8.512;2023-05-07T09:52:05;3.07;;;2.60;;
6442;SDS011;3254;47.372;8.512;2023-05-07T09:54:33;2.50;;;2.40;;
6442;SDS011;3254;47.372;8.512;2023-05-07T09:57:03;2.90;;;2.70;;
6442;SDS011;3254;47.372;8.512;2023-05-07T09:59:32;4.67;;;2.80;;
6442;SDS011;3254;47.372;8.512;2023-05-07T10:01:58;2.80;;;2.60;;
6442;SDS011;3254;47.372;8.512;2023-05-07T10:04:26;3.17;;;2.40;;
6442;SDS011;3254;47.372;8.512;2023-05-07T10:06:52;3.20;;;3.07;;
6442;SDS011;3254;47.372;8.512;2023-05-07T10:09:18;2.30;;;2.20;;
6442;SDS011;3254;47.372;8.512;2023-05-07T10:11:47;2.13;;;2.03;;
6442;SDS011;3254;47.372;8.512;2023-05-07T10:14:17;3.07;;;2.73;;
6442;SDS011;3254;47.372;8.512;2023-05-07T10:16:45;2.70;;;2.50;;
6442;SDS011;3254;47.372;8.512;2023-05-07T10:19:12;4.13;;;2.37;;
6442;SDS011;3254;47.372;8.512;2023-05-07T10:21:39;2.27;;;2.03;;
6442;SDS011;3254;47.372;8.512;2023-05-07T10:24:25;2.43;;;2.23;;
6442;SDS011;3254;47.372;8.512;2023-05-07T10:26:55;3.13;;;2.43;;
6442;SDS011;3254;47.372;8.512;2023-05-07T10:32:42;4.07;;;2.20;;
6442;SDS011;3254;47.372;8.512;2023-05-07T10:35:20;3.77;;;3.07;;
6442;SDS011;3254;47.372;8.512;2023-05-07T10:37:49;2.43;;;2.23;;
6442;SDS011;3254;47.372;8.512;2023-05-07T10:40:15;4.27;;;2.60;;
6442;SDS011;3254;47.372;8.512;2023-05-07T10:43:04;2.63;;;2.43;;
6442;SDS011;3254;47.372;8.512;2023-05-07T10:45:30;3.13;;;2.80;;
6442;SDS011;3254;47.372;8.512;2023-05-07T10:50:36;8.30;;;2.60;;
6442;SDS011;3254;47.372;8.512;2023-05-07T10:55:41;8.30;;;2.60;;
6442;SDS011;3254;47.372;8.512;2023-05-07T10:58:22;7.20;;;3.00;;
6442;SDS011;3254;47.372;8.512;2023-05-07T11:00:55;3.47;;;2.47;;
6442;SDS011;3254;47.372;8.512;2023-05-07T11:03:25;4.40;;;2.47;;
6442;SDS011;3254;47.372;8.512;2023-05-07T11:08:56;6.43;;;2.20;;
6442;SDS011;3254;47.372;8.512;2023-05-07T11:17:08;2.93;;;2.73;;
6442;SDS011;3254;47.372;8.512;2023-05-07T11:19:48;4.27;;;2.27;;
6442;SDS011;3254;47.372;8.512;2023-05-07T11:25:05;2.33;;;2.23;;
6442;SDS011;3254;47.372;8.512;2023-05-07T11:27:32;2.10;;;2.00;;
6442;SDS011;3254;47.372;8.512;2023-05-07T11:29:58;4.87;;;2.23;;
6442;SDS011;3254;47.372;8.512;2023-05-07T11:32:31;3.00;;;2.10;;
6442;SDS011;3254;47.372;8.512;2023-05-07T11:34:58;4.53;;;2.80;;
6442;SDS011;3254;47.372;8.512;2023-05-07T11:37:25;2.80;;;2.60;;
6442;SDS011;3254;47.372;8.512;2023-05-07T11:40:03;5.13;;;3.50;;
6442;SDS011;3254;47.372;8.512;2023-05-07T11:42:34;4.37;;;2.70;;
6442;SDS011;3254;47.372;8.512;2023-05-07T11:45:02;3.13;;;2.90;;
6442;SDS011;3254;47.372;8.512;2023-05-07T11:47:31;6.43;;;2.97;;
6442;SDS011;3254;47.372;8.512;2023-05-07T11:50:05;2.87;;;2.23;;
6442;SDS011;3254;47.372;8.512;2023-05-07T11:52:34;8.83;;;2.70;;
6442;SDS011;3254;47.372;8.512;2023-05-07T11:55:03;4.50;;;2.77;;
6442;SDS011;3254;47.372;8.512;2023-05-07T11:57:29;2.87;;;2.63;;
6442;SDS011;3254;47.372;8.512;2023-05-07T11:59:58;3.30;;;2.33;;
6442;SDS011;3254;47.372;8.512;2023-05-07T12:02:25;2.70;;;2.53;;
6442;SDS011;3254;47.372;8.512;2023-05-07T12:04:51;3.27;;;2.47;;
6442;SDS011;3254;47.372;8.512;2023-05-07T12:07:19;4.17;;;2.60;;
6442;SDS011;3254;47.372;8.512;2023-05-07T12:09:45;3.40;;;2.67;;
6442;SDS011;3254;47.372;8.512;2023-05-07T12:12:11;3.07;;;2.77;;
6442;SDS011;3254;47.372;8.512;2023-05-07T12:14:39;2.90;;;2.40;;
6442;SDS011;3254;47.372;8.512;2023-05-07T12:17:06;2.43;;;2.23;;
6442;SDS011;3254;47.372;8.512;2023-05-07T12:19:33;2.70;;;2.60;;
6442;SDS011;3254;47.372;8.512;2023-05-07T12:22:01;3.47;;;2.63;;
6442;SDS011;3254;47.372;8.512;2023-05-07T12:24:27;4.07;;;2.80;;
6442;SDS011;3254;47.372;8.512;2023-05-07T12:26:53;5.93;;;2.67;;
6442;SDS011;3254;47.372;8.512;2023-05-07T12:29:22;3.53;;;3.00;;
6442;SDS011;3254;47.372;8.512;2023-05-07T12:31:49;3.50;;;2.77;;
6442;SDS011;3254;47.372;8.512;2023-05-07T12:34:18;6.20;;;2.40;;
6442;SDS011;3254;47.372;8.512;2023-05-07T12:36:56;3.10;;;2.90;;
6442;SDS011;3254;47.372;8.512;2023-05-07T12:39:22;4.10;;;2.70;;
6442;SDS011;3254;47.372;8.512;2023-05-07T12:41:54;6.23;;;3.20;;
6442;SDS011;3254;47.372;8.512;2023-05-07T12:44:24;3.87;;;3.00;;
6442;SDS011;3254;47.372;8.512;2023-05-07T12:46:58;2.90;;;2.70;;
6442;SDS011;3254;47.372;8.512;2023-05-07T12:49:26;4.83;;;3.27;;
6442;SDS011;3254;47.372;8.512;2023-05-07T12:51:53;2.83;;;2.73;;
6442;SDS011;3254;47.372;8.512;2023-05-07T12:54:35;5.47;;;2.93;;
6442;SDS011;3254;47.372;8.512;2023-05-07T12:57:06;4.07;;;3.40;;
6442;SDS011;3254;47.372;8.512;2023-05-07T12:59:37;3.50;;;3.30;;
6442;SDS011;3254;47.372;8.512;2023-05-07T13:02:05;4.03;;;3.73;;
6442;SDS011;3254;47.372;8.512;2023-05-07T13:04:32;3.47;;;3.27;;
6442;SDS011;3254;47.372;8.512;2023-05-07T13:07:05;3.53;;;3.33;;
6442;SDS011;3254;47.372;8.512;2023-05-07T13:09:30;4.10;;;3.80;;
6442;SDS011;3254;47.372;8.512;2023-05-07T13:11:57;3.70;;;3.40;;
6442;SDS011;3254;47.372;8.512;2023-05-07T13:19:32;3.27;;;3.17;;
6442;SDS011;3254;47.372;8.512;2023-05-07T13:21:57;3.47;;;3.17;;
6442;SDS011;3254;47.372;8.512;2023-05-07T13:24:25;3.30;;;3.00;;
6442;SDS011;3254;47.372;8.512;2023-05-07T13:26:51;3.60;;;3.30;;
6442;SDS011;3254;47.372;8.512;2023-05-07T13:29:17;3.00;;;2.77;;
6442;SDS011;3254;47.372;8.512;2023-05-07T13:31:44;3.70;;;3.40;;
6442;SDS011;3254;47.372;8.512;2023-05-07T13:34:10;6.17;;;3.43;;
6442;SDS011;3254;47.372;8.512;2023-05-07T13:36:35;3.43;;;3.03;;
6442;SDS011;3254;47.372;8.512;2023-05-07T13:39:04;3.77;;;2.63;;
6442;SDS011;3254;47.372;8.512;2023-05-07T13:41:31;2.43;;;2.33;;
6442;SDS011;3254;47.372;8.512;2023-05-07T13:43:57;3.70;;;2.40;;
6442;SDS011;3254;47.372;8.512;2023-05-07T13:46:22;8.20;;;2.90;;
6442;SDS011;3254;47.372;8.512;2023-05-07T13:48:49;3.57;;;3.37;;
6442;SDS011;3254;47.372;8.512;2023-05-07T13:54:03;3.53;;;3.07;;
6442;SDS011;3254;47.372;8.512;2023-05-07T13:56:29;3.60;;;2.83;;
6442;SDS011;3254;47.372;8.512;2023-05-07T13:58:57;3.03;;;2.83;;
6442;SDS011;3254;47.372;8.512;2023-05-07T14:01:23;9.27;;;2.57;;
6442;SDS011;3254;47.372;8.512;2023-05-07T14:03:51;4.50;;;2.70;;
6442;SDS011;3254;47.372;8.512;2023-05-07T14:06:17;2.90;;;2.60;;
6442;SDS011;3254;47.372;8.512;2023-05-07T14:08:43;4.33;;;2.37;;
6442;SDS011;3254;47.372;8.512;2023-05-07T14:11:11;2.57;;;2.37;;
6442;SDS011;3254;47.372;8.512;2023-05-07T14:13:37;2.10;;;2.00;;
6442;SDS011;3254;47.372;8.512;2023-05-07T14:16:03;2.43;;;2.23;;
6442;SDS011;3254;47.372;8.512;2023-05-07T14:18:29;2.40;;;2.30;;
6442;SDS011;3254;47.372;8.512;2023-05-07T14:20:55;2.60;;;2.40;;
6442;SDS011;3254;47.372;8.512;2023-05-07T14:23:21;3.00;;;2.50;;
6442;SDS011;3254;47.372;8.512;2023-05-07T14:25:51;2.10;;;1.90;;
6442;SDS011;3254;47.372;8.512;2023-05-07T14:28:19;2.50;;;2.40;;
6442;SDS011;3254;47.372;8.512;2023-05-07T14:30:52;3.73;;;2.20;;
6442;SDS011;3254;47.372;8.512;2023-05-07T14:33:18;2.40;;;2.20;;
6442;SDS011;3254;47.372;8.512;2023-05-07T14:35:45;4.03;;;2.23;;
6442;SDS011;3254;47.372;8.512;2023-05-07T14:38:13;1.93;;;1.83;;
6442;SDS011;3254;47.372;8.512;2023-05-07T14:40:39;3.73;;;2.03;;
6442;SDS011;3254;47.372;8.512;2023-05-07T14:43:08;2.30;;;2.20;;
6442;SDS011;3254;47.372;8.512;2023-05-07T14:45:37;3.10;;;2.87;;
6442;SDS011;3254;47.372;8.512;2023-05-07T14:48:04;2.73;;;2.60;;
6442;SDS011;3254;47.372;8.512;2023-05-07T14:50:31;3.63;;;2.60;;
6442;SDS011;3254;47.372;8.512;2023-05-07T14:52:56;4.87;;;2.60;;
6442;SDS011;3254;47.372;8.512;2023-05-07T14:55:22;5.93;;;3.87;;
6442;SDS011;3254;47.372;8.512;2023-05-07T14:57:47;3.20;;;3.10;;
6442;SDS011;3254;47.372;8.512;2023-05-07T15:00:13;4.13;;;3.17;;
6442;SDS011;3254;47.372;8.512;2023-05-07T15:02:39;3.20;;;3.00;;
6442;SDS011;3254;47.372;8.512;2023-05-07T15:05:05;3.77;;;2.93;;
6442;SDS011;3254;47.372;8.512;2023-05-07T15:07:31;4.27;;;3.97;;
6442;SDS011;3254;47.372;8.512;2023-05-07T15:09:59;3.60;;;3.30;;
6442;SDS011;3254;47.372;8.512;2023-05-07T15:12:25;3.90;;;3.60;;
6442;SDS011;3254;47.372;8.512;2023-05-07T15:14:50;3.67;;;3.30;;
6442;SDS011;3254;47.372;8.512;2023-05-07T15:17:16;4.70;;;4.40;;
6442;SDS011;3254;47.372;8.512;2023-05-07T15:19:42;6.27;;;5.77;;
6442;SDS011;3254;47.372;8.512;2023-05-07T15:22:08;8.70;;;7.63;;
6442;SDS011;3254;47.372;8.512;2023-05-07T15:24:33;9.37;;;7.83;;
6442;SDS011;3254;47.372;8.512;2023-05-07T15:26:59;8.23;;;7.40;;
6442;SDS011;3254;47.372;8.512;2023-05-07T15:29:27;17.27;;;7.13;;
6442;SDS011;3254;47.372;8.512;2023-05-07T15:31:53;7.10;;;6.50;;
6442;SDS011;3254;47.372;8.512;2023-05-07T15:34:20;7.20;;;6.00;;
6442;SDS011;3254;47.372;8.512;2023-05-07T15:36:46;6.77;;;6.17;;
6442;SDS011;3254;47.372;8.512;2023-05-07T15:39:15;10.67;;;8.03;;
6442;SDS011;3254;47.372;8.512;2023-05-07T15:41:42;7.00;;;6.50;;
6442;SDS011;3254;47.372;8.512;2023-05-07T15:44:08;10.43;;;7.73;;